createdAt,value
2018-06-07T00:02:04.510Z,19.40
2018-06-07T00:04:32.531Z,19.40
2018-06-07T00:07:00.489Z,19.30
2018-06-07T00:09:28.448Z,19.30
2018-06-07T00:11:56.508Z,19.30
2018-06-07T00:14:24.480Z,19.20
2018-06-07T00:16:52.508Z,19.20
2018-06-07T00:19:20.476Z,19.20
2018-06-07T00:21:48.408Z,19.10
2018-06-07T00:24:17.398Z,19.10
2018-06-07T00:26:45.439Z,19.10
2018-06-07T00:29:13.396Z,19.10
2018-06-07T00:31:41.386Z,19.00
2018-06-07T00:34:09.463Z,19.00
2018-06-07T00:36:37.404Z,18.90
2018-06-07T00:39:06.965Z,18.90
2018-06-07T00:41:35.053Z,18.80
2018-06-07T00:44:03.032Z,18.80
2018-06-07T00:46:31.116Z,18.80
2018-06-07T00:48:59.138Z,18.70
2018-06-07T00:51:27.148Z,18.80
2018-06-07T00:53:55.151Z,18.70
2018-06-07T00:56:34.695Z,18.60
2018-06-07T00:59:02.664Z,18.60
2018-06-07T01:01:30.733Z,18.50
2018-06-07T01:06:26.473Z,18.50
2018-06-07T01:08:54.480Z,18.50
2018-06-07T01:11:22.536Z,18.40
2018-06-07T01:13:50.682Z,18.40
2018-06-07T01:16:18.745Z,18.40
2018-06-07T01:18:46.699Z,18.30
2018-06-07T01:21:14.659Z,18.30
2018-06-07T01:23:42.608Z,18.30
2018-06-07T01:26:10.572Z,18.30
2018-06-07T01:28:38.618Z,18.20
2018-06-07T01:31:12.240Z,18.20
2018-06-07T01:33:45.865Z,18.20
2018-06-07T01:36:13.824Z,18.20
2018-06-07T01:39:06.621Z,18.20
2018-06-07T01:41:34.741Z,18.10
2018-06-07T01:44:02.809Z,18.10
2018-06-07T01:46:30.760Z,18.00
2018-06-07T01:51:26.563Z,18.00
2018-06-07T01:53:54.636Z,17.90
2018-06-07T01:56:22.732Z,17.90
2018-06-07T01:58:50.784Z,17.90
2018-06-07T02:01:18.764Z,17.90
2018-06-07T02:03:46.735Z,17.80
2018-06-07T02:08:42.652Z,17.80
2018-06-07T02:11:11.070Z,17.80
2018-06-07T02:13:39.045Z,17.80
2018-06-07T02:16:07.012Z,17.80
2018-06-07T02:18:35.012Z,17.70
2018-06-07T02:21:03.055Z,17.70
2018-06-07T02:23:31.032Z,17.70
2018-06-07T02:25:59.084Z,17.70
2018-06-07T02:28:27.052Z,17.70
2018-06-07T02:30:55.089Z,17.60
2018-06-07T02:33:23.140Z,17.60
2018-06-07T02:35:51.196Z,17.60
2018-06-07T02:38:19.213Z,17.60
2018-06-07T02:40:47.180Z,17.60
2018-06-07T02:43:15.171Z,17.50
2018-06-07T02:45:43.143Z,17.50
2018-06-07T02:50:39.480Z,17.50
2018-06-07T02:53:07.506Z,17.50
2018-06-07T02:55:35.499Z,17.40
2018-06-07T02:58:03.491Z,17.50
2018-06-07T03:00:31.434Z,17.40
2018-06-07T03:02:59.400Z,17.40
2018-06-07T03:05:27.521Z,17.40
2018-06-07T03:07:55.546Z,17.40
2018-06-07T03:10:23.526Z,17.40
2018-06-07T03:12:51.497Z,17.50
2018-06-07T03:15:19.488Z,17.50
2018-06-07T03:17:47.526Z,17.40
2018-06-07T03:20:15.505Z,17.30
2018-06-07T03:22:43.533Z,17.40
2018-06-07T03:25:12.403Z,17.40
2018-06-07T03:27:40.460Z,17.30
2018-06-07T03:30:08.435Z,17.20
2018-06-07T03:35:04.205Z,17.20
2018-06-07T03:37:32.214Z,17.20
2018-06-07T03:40:00.159Z,17.20
2018-06-07T03:42:28.166Z,17.20
2018-06-07T03:44:56.100Z,17.10
2018-06-07T03:47:24.079Z,17.10
2018-06-07T03:49:52.091Z,17.10
2018-06-07T03:52:20.059Z,17.10
2018-06-07T03:54:48.120Z,17.10
2018-06-07T03:57:16.150Z,17.10
2018-06-07T03:59:44.861Z,17.00
2018-06-07T04:02:13.023Z,17.10
2018-06-07T04:04:41.015Z,17.00
2018-06-07T04:07:08.992Z,17.00
2018-06-07T04:09:37.046Z,17.00
2018-06-07T04:12:05.001Z,16.90
2018-06-07T04:14:33.056Z,16.90
2018-06-07T04:17:02.339Z,16.90
2018-06-07T04:19:30.331Z,16.90
2018-06-07T04:21:58.397Z,16.90
2018-06-07T04:24:26.352Z,17.00
2018-06-07T04:26:54.353Z,16.90
2018-06-07T04:29:22.463Z,16.90
2018-06-07T04:31:50.426Z,16.80
2018-06-07T04:34:18.377Z,16.90
2018-06-07T04:36:46.420Z,16.80
2018-06-07T04:39:14.399Z,16.90
2018-06-07T04:41:42.377Z,17.00
2018-06-07T04:44:10.332Z,17.10
2018-06-07T04:46:38.325Z,17.00
2018-06-07T04:49:06.264Z,17.00
2018-06-07T04:51:34.257Z,17.00
2018-06-07T04:54:02.226Z,17.10
2018-06-07T04:56:30.180Z,17.10
2018-06-07T04:58:58.167Z,17.10
2018-06-07T05:01:26.152Z,17.10
2018-06-07T05:03:54.234Z,17.10
2018-06-07T05:06:22.283Z,17.10
2018-06-07T05:08:50.304Z,17.10
2018-06-07T05:11:18.286Z,17.20
2018-06-07T05:13:46.286Z,17.20
2018-06-07T05:16:14.437Z,17.20
2018-06-07T05:18:42.457Z,17.30
2018-06-07T05:21:10.531Z,17.40
2018-06-07T05:23:38.467Z,17.40
2018-06-07T05:26:06.434Z,17.40
2018-06-07T05:28:34.420Z,17.30
2018-06-07T05:33:30.260Z,17.40
2018-06-07T05:35:58.981Z,17.40
2018-06-07T05:38:27.001Z,17.50
2018-06-07T05:40:54.985Z,17.60
2018-06-07T05:43:22.988Z,17.60
2018-06-07T05:45:51.005Z,17.60
2018-06-07T05:48:18.954Z,17.70
2018-06-07T05:50:46.965Z,17.80
2018-06-07T05:53:15.139Z,17.80
2018-06-07T05:55:43.201Z,17.80
2018-06-07T05:58:11.184Z,17.80
2018-06-07T06:00:39.283Z,17.90
2018-06-07T06:03:07.398Z,17.90
2018-06-07T06:05:35.454Z,17.90
2018-06-07T06:08:03.378Z,17.90
2018-06-07T06:10:31.496Z,18.10
2018-06-07T06:12:59.462Z,18.10
2018-06-07T06:15:27.452Z,18.10
2018-06-07T06:17:55.437Z,18.10
2018-06-07T06:20:23.509Z,18.30
2018-06-07T06:22:51.568Z,18.40
2018-06-07T06:25:19.537Z,18.50
2018-06-07T06:27:47.664Z,18.70
2018-06-07T06:30:15.812Z,18.70
2018-06-07T06:32:43.779Z,18.70
2018-06-07T06:35:11.787Z,18.90
2018-06-07T06:38:49.528Z,18.90
2018-06-07T06:41:17.804Z,18.90
2018-06-07T06:43:46.246Z,18.80
2018-06-07T06:46:14.247Z,18.80
2018-06-07T06:48:42.229Z,18.90
2018-06-07T06:51:10.311Z,19.00
2018-06-07T06:53:38.313Z,19.10
2018-06-07T06:56:06.301Z,19.20
2018-06-07T06:58:34.312Z,19.20
2018-06-07T07:01:02.362Z,19.30
2018-06-07T07:03:30.359Z,19.40
2018-06-07T07:05:58.379Z,19.40
2018-06-07T07:08:26.512Z,19.50
2018-06-07T07:10:54.792Z,19.60
2018-06-07T07:13:22.972Z,19.70
2018-06-07T07:18:18.933Z,19.90
2018-06-07T07:20:46.943Z,20.00
2018-06-07T07:23:14.983Z,20.10
2018-06-07T07:25:42.900Z,20.30
2018-06-07T07:28:10.896Z,20.40
2018-06-07T07:30:38.895Z,20.50
2018-06-07T07:33:06.876Z,20.50
2018-06-07T07:35:34.944Z,20.50
2018-06-07T07:38:02.954Z,20.60
2018-06-07T07:40:30.941Z,20.60
2018-06-07T07:42:58.945Z,20.80
2018-06-07T07:45:26.994Z,20.80
2018-06-07T07:47:54.955Z,21.00
2018-06-07T07:50:23.027Z,21.10
2018-06-07T07:52:51.015Z,21.10
2018-06-07T07:55:19.036Z,21.20
2018-06-07T07:57:47.779Z,21.30
2018-06-07T08:00:15.793Z,21.30
2018-06-07T08:02:43.769Z,21.40
2018-06-07T08:05:11.840Z,21.40
2018-06-07T08:07:39.931Z,21.50
2018-06-07T08:10:07.894Z,21.50
2018-06-07T08:12:35.953Z,21.50
2018-06-07T08:15:03.965Z,21.50
2018-06-07T08:17:31.931Z,21.60
2018-06-07T08:19:59.908Z,21.60
2018-06-07T08:22:27.865Z,21.70
2018-06-07T08:24:55.883Z,21.80
2018-06-07T08:27:23.924Z,21.90
2018-06-07T08:29:51.967Z,22.00
2018-06-07T08:32:20.013Z,22.00
2018-06-07T08:34:48.372Z,22.00
2018-06-07T08:37:16.508Z,22.00
2018-06-07T08:39:44.596Z,22.10
2018-06-07T08:42:12.548Z,22.10
2018-06-07T08:44:40.622Z,22.20
2018-06-07T08:47:08.555Z,22.30
2018-06-07T08:49:36.528Z,22.30
2018-06-07T08:52:04.565Z,22.40
2018-06-07T08:54:32.547Z,22.50
2018-06-07T08:57:00.560Z,22.60
2018-06-07T08:59:28.651Z,22.70
2018-06-07T09:01:56.599Z,22.70
2018-06-07T09:04:24.571Z,22.70
2018-06-07T09:09:20.327Z,22.90
2018-06-07T09:11:49.013Z,22.90
2018-06-07T09:14:17.001Z,23.00
2018-06-07T09:16:44.968Z,23.10
2018-06-07T09:19:13.382Z,23.10
2018-06-07T09:21:41.357Z,23.10
2018-06-07T09:24:09.331Z,23.20
2018-06-07T09:26:37.974Z,23.30
2018-06-07T09:29:06.058Z,23.40
2018-06-07T09:31:33.986Z,23.40
2018-06-07T09:34:02.132Z,23.40
2018-06-07T09:36:30.317Z,23.50
2018-06-07T09:38:58.299Z,23.50
2018-06-07T09:43:55.696Z,23.60
2018-06-07T09:46:23.708Z,23.60
2018-06-07T09:48:51.761Z,23.60
2018-06-07T09:51:19.761Z,23.70
2018-06-07T09:53:47.744Z,23.80
2018-06-07T09:56:16.022Z,23.90
2018-06-07T09:58:44.004Z,24.00
2018-06-07T10:01:12.029Z,24.00
2018-06-07T10:03:40.014Z,24.00
2018-06-07T10:06:09.147Z,24.10
2018-06-07T10:08:38.616Z,24.20
2018-06-07T10:11:07.138Z,24.20
2018-06-07T10:13:35.105Z,24.30
2018-06-07T10:16:04.803Z,24.40
2018-06-07T10:18:33.819Z,24.40
2018-06-07T10:21:01.785Z,24.50
2018-06-07T10:23:29.971Z,24.50
2018-06-07T10:28:25.872Z,24.60
2018-06-07T10:30:53.882Z,24.60
2018-06-07T10:33:22.609Z,24.70
2018-06-07T10:35:50.585Z,24.80
2018-06-07T10:38:18.593Z,24.90
2018-06-07T10:40:46.731Z,25.00
2018-06-07T10:43:15.625Z,25.00
2018-06-07T10:45:43.703Z,25.10
2018-06-07T10:48:11.969Z,25.10
2018-06-07T10:50:40.008Z,25.20
2018-06-07T10:53:07.996Z,25.30
2018-06-07T10:55:35.967Z,25.30
2018-06-07T10:58:04.043Z,25.40
2018-06-07T11:00:32.011Z,25.50
2018-06-07T11:02:59.949Z,25.50
2018-06-07T11:05:28.396Z,25.60
2018-06-07T11:07:56.464Z,25.80
2018-06-07T11:10:24.491Z,25.90
2018-06-07T11:12:52.472Z,26.00
2018-06-07T11:15:21.378Z,26.10
2018-06-07T11:17:49.427Z,26.20
2018-06-07T11:20:17.371Z,26.20
2018-06-07T11:22:45.373Z,26.30
2018-06-07T11:25:13.351Z,26.40
2018-06-07T11:27:41.319Z,26.40
2018-06-07T11:30:09.320Z,26.40
2018-06-07T11:32:37.302Z,26.40
2018-06-07T11:35:05.326Z,26.40
2018-06-07T11:37:33.292Z,26.40
2018-06-07T11:40:01.245Z,26.50
2018-06-07T11:42:29.252Z,26.60
2018-06-07T11:44:57.194Z,26.70
2018-06-07T11:49:53.034Z,27.10
2018-06-07T11:52:21.085Z,27.40
2018-06-07T11:54:49.215Z,27.40
2018-06-07T11:57:17.126Z,27.40
2018-06-07T11:59:45.113Z,27.40
2018-06-07T12:04:40.868Z,27.80
2018-06-07T12:07:08.850Z,27.90
2018-06-07T12:09:36.796Z,27.90
2018-06-07T12:12:04.841Z,28.20
2018-06-07T12:14:32.913Z,28.50
2018-06-07T12:17:00.890Z,28.70
2018-06-07T12:19:28.924Z,28.90
2018-06-07T12:21:56.920Z,29.10
2018-06-07T12:24:25.016Z,29.50
2018-06-07T12:26:53.074Z,30.10
2018-06-07T12:29:21.051Z,30.40
2018-06-07T12:31:49.000Z,30.90
2018-06-07T12:34:16.979Z,31.20
2018-06-07T12:36:44.972Z,31.90
2018-06-07T12:39:12.929Z,31.60
2018-06-07T12:41:40.999Z,31.90
2018-06-07T12:44:08.973Z,32.40
2018-06-07T12:46:37.036Z,33.30
2018-06-07T12:49:04.984Z,33.50
2018-06-07T12:51:33.056Z,33.60
2018-06-07T12:54:01.099Z,33.60
2018-06-07T12:56:29.176Z,33.90
2018-06-07T12:58:57.165Z,34.50
2018-06-07T13:01:25.239Z,34.60
2018-06-07T13:03:53.924Z,34.90
2018-06-07T13:06:21.898Z,35.60
2018-06-07T13:08:49.868Z,35.60
2018-06-07T13:11:17.864Z,35.40
2018-06-07T13:13:45.823Z,35.30
2018-06-07T13:16:13.772Z,35.90
2018-06-07T13:18:41.837Z,37.40
2018-06-07T13:21:09.811Z,37.00
2018-06-07T13:23:37.797Z,36.70
2018-06-07T13:26:05.911Z,38.10
2018-06-07T13:28:33.953Z,39.20
2018-06-07T13:31:01.920Z,38.50
2018-06-07T13:33:29.904Z,38.60
2018-06-07T13:35:57.897Z,38.70
2018-06-07T13:38:25.905Z,39.00
2018-06-07T13:40:54.360Z,39.00
2018-06-07T13:43:22.448Z,38.20
2018-06-07T13:45:50.416Z,38.00
2018-06-07T13:48:18.396Z,38.70
2018-06-07T13:50:47.743Z,39.80
2018-06-07T13:53:15.657Z,39.60
2018-06-07T13:55:43.632Z,39.80
2018-06-07T13:58:11.594Z,39.10
2018-06-07T14:00:39.600Z,38.40
2018-06-07T14:03:07.597Z,38.90
2018-06-07T14:05:35.578Z,39.40
2018-06-07T14:08:03.611Z,39.50
2018-06-07T14:10:31.536Z,40.40
2018-06-07T14:12:59.551Z,40.40
2018-06-07T14:15:27.527Z,40.50
2018-06-07T14:17:55.529Z,40.70
2018-06-07T14:22:51.330Z,38.80
2018-06-07T14:25:19.435Z,37.70
2018-06-07T14:27:47.426Z,38.40
2018-06-07T14:30:15.404Z,39.40
2018-06-07T14:32:43.336Z,40.30
2018-06-07T14:35:11.300Z,39.50
2018-06-07T14:37:39.267Z,40.00
2018-06-07T14:40:07.240Z,40.80
2018-06-07T14:42:35.191Z,41.80
2018-06-07T14:45:03.176Z,39.90
2018-06-07T14:47:31.172Z,38.90
2018-06-07T14:49:59.119Z,39.80
2018-06-07T14:52:27.089Z,39.80
2018-06-07T14:54:55.782Z,39.60
2018-06-07T14:57:23.740Z,40.20
2018-06-07T14:59:51.780Z,40.20
2018-06-07T15:02:19.757Z,39.00
2018-06-07T15:04:47.730Z,39.70
2018-06-07T15:07:15.726Z,40.70
2018-06-07T15:09:43.696Z,40.10
2018-06-07T15:12:11.776Z,40.00
2018-06-07T15:14:39.773Z,39.20
2018-06-07T15:17:07.725Z,39.00
2018-06-07T15:19:35.680Z,39.10
2018-06-07T15:22:03.653Z,39.30
2018-06-07T15:24:31.594Z,39.40
2018-06-07T15:26:59.576Z,38.70
2018-06-07T15:34:24.069Z,40.10
2018-06-07T15:36:52.027Z,40.80
2018-06-07T15:39:20.039Z,40.90
2018-06-07T15:41:48.021Z,40.10
2018-06-07T15:44:16.004Z,40.10
2018-06-07T15:46:43.944Z,40.10
2018-06-07T15:49:11.904Z,40.10
2018-06-07T15:51:39.880Z,39.50
2018-06-07T15:54:07.955Z,38.90
2018-06-07T15:56:35.936Z,38.60
2018-06-07T15:59:04.214Z,38.20
2018-06-07T16:01:32.243Z,38.20
2018-06-07T16:04:00.179Z,38.30
2018-06-07T16:06:28.136Z,37.90
2018-06-07T16:08:57.052Z,37.60
2018-06-07T16:11:25.057Z,37.30
2018-06-07T16:13:53.208Z,37.00
2018-06-07T16:16:21.234Z,36.70
2018-06-07T16:18:49.259Z,36.30
2018-06-07T16:21:17.244Z,36.10
2018-06-07T16:23:45.336Z,35.80
2018-06-07T16:26:13.307Z,35.40
2018-06-07T16:28:41.252Z,35.10
2018-06-07T16:31:09.224Z,34.90
2018-06-07T16:33:37.166Z,34.80
2018-06-07T16:36:05.178Z,34.70
2018-06-07T16:38:33.130Z,34.50
2018-06-07T16:41:01.090Z,34.40
2018-06-07T16:45:57.649Z,33.80
2018-06-07T16:48:25.596Z,34.00
2018-06-07T16:50:53.584Z,34.10
2018-06-07T16:53:21.605Z,34.10
2018-06-07T16:55:49.625Z,34.10
2018-06-07T16:58:17.621Z,34.20
2018-06-07T17:00:45.591Z,34.20
2018-06-07T17:03:13.532Z,34.20
2018-06-07T17:05:41.538Z,34.20
2018-06-07T17:08:09.502Z,34.30
2018-06-07T17:10:37.457Z,34.30
2018-06-07T17:13:05.409Z,34.20
2018-06-07T17:15:33.396Z,34.40
2018-06-07T17:18:01.390Z,34.50
2018-06-07T17:20:29.341Z,34.60
2018-06-07T17:22:57.474Z,34.60
2018-06-07T17:25:25.478Z,34.60
2018-06-07T17:27:53.466Z,34.60
2018-06-07T17:30:21.395Z,34.60
2018-06-07T17:32:49.379Z,34.60
2018-06-07T17:35:17.350Z,34.30
2018-06-07T17:37:45.344Z,34.30
2018-06-07T17:40:13.306Z,34.40
2018-06-07T17:42:41.256Z,34.40
2018-06-07T17:45:09.220Z,34.40
2018-06-07T17:47:37.179Z,34.00
2018-06-07T17:52:32.933Z,33.80
2018-06-07T17:55:00.880Z,33.90
2018-06-07T17:57:29.320Z,33.90
2018-06-07T17:59:57.296Z,34.00
2018-06-07T18:02:25.395Z,34.00
2018-06-07T18:04:53.388Z,34.00
2018-06-07T18:07:21.362Z,33.90
2018-06-07T18:09:49.344Z,33.80
2018-06-07T18:12:17.305Z,33.50
2018-06-07T18:14:45.266Z,33.40
2018-06-07T18:17:13.266Z,33.20
2018-06-07T18:22:15.644Z,32.50
2018-06-07T18:24:43.561Z,32.00
2018-06-07T18:27:11.537Z,31.60
2018-06-07T18:29:39.645Z,31.30
2018-06-07T18:34:35.586Z,30.90
2018-06-07T18:37:03.590Z,30.90
2018-06-07T18:39:31.517Z,30.70
2018-06-07T18:42:00.104Z,30.50
2018-06-07T18:44:28.072Z,30.30
2018-06-07T18:46:56.029Z,30.30
2018-06-07T18:49:23.999Z,30.40
2018-06-07T18:51:51.959Z,30.40
2018-06-07T18:54:19.937Z,30.30
2018-06-07T18:56:48.234Z,30.20
2018-06-07T18:59:16.308Z,30.10
2018-06-07T19:01:44.277Z,30.00
2018-06-07T19:04:12.312Z,29.90
2018-06-07T19:06:40.267Z,29.70
2018-06-07T19:09:13.688Z,29.70
2018-06-07T19:11:41.633Z,29.60
2018-06-07T19:14:15.080Z,29.60
2018-06-07T19:16:43.052Z,29.60
2018-06-07T19:19:16.550Z,29.60
2018-06-07T19:21:44.485Z,29.50
2018-06-07T19:24:12.468Z,29.40
2018-06-07T19:26:45.980Z,29.30
2018-06-07T19:29:13.952Z,29.30
2018-06-07T19:31:47.357Z,29.30
2018-06-07T19:34:20.928Z,29.20
2018-06-07T19:36:48.958Z,29.20
2018-06-07T19:39:22.207Z,29.10
2018-06-07T19:41:55.615Z,29.10
2018-06-07T19:44:23.690Z,29.00
2018-06-07T19:46:53.397Z,28.80
2018-06-07T19:49:21.348Z,28.70
2018-06-07T19:51:49.303Z,28.50
2018-06-07T19:54:17.380Z,28.00
2018-06-07T19:56:45.333Z,27.80
2018-06-07T19:59:13.306Z,27.70
2018-06-07T20:01:41.299Z,27.80
2018-06-07T20:04:09.284Z,27.80
2018-06-07T20:06:37.289Z,27.80
2018-06-07T20:09:07.856Z,27.80
2018-06-07T20:11:35.829Z,27.60
2018-06-07T20:14:03.892Z,27.50
2018-06-07T20:16:31.847Z,27.40
2018-06-07T20:18:59.829Z,27.20
2018-06-07T20:21:27.811Z,27.10
2018-06-07T20:23:55.783Z,26.80
2018-06-07T20:26:23.827Z,26.70
2018-06-07T20:28:51.920Z,26.50
2018-06-07T20:31:19.969Z,26.40
2018-06-07T20:33:47.948Z,26.30
2018-06-07T20:36:15.924Z,26.40
2018-06-07T20:38:43.903Z,26.40
2018-06-07T20:41:12.000Z,26.40
2018-06-07T20:43:39.987Z,26.40
2018-06-07T20:46:07.985Z,26.20
2018-06-07T20:48:35.975Z,26.00
2018-06-07T20:51:04.032Z,25.80
2018-06-07T20:53:32.584Z,25.70
2018-06-07T20:56:00.580Z,25.50
2018-06-07T20:58:28.553Z,25.50
2018-06-07T21:00:56.536Z,25.40
2018-06-07T21:03:24.536Z,25.30
2018-06-07T21:05:53.399Z,25.30
2018-06-07T21:08:21.408Z,25.30
2018-06-07T21:10:49.411Z,25.40
2018-06-07T21:13:17.395Z,25.30
2018-06-07T21:15:45.357Z,25.40
2018-06-07T21:18:13.326Z,25.30
2018-06-07T21:20:41.317Z,25.40
2018-06-07T21:23:09.254Z,25.40
2018-06-07T21:25:37.250Z,25.40
2018-06-07T21:28:05.219Z,25.50
2018-06-07T21:30:33.269Z,25.50
2018-06-07T21:33:01.261Z,25.50
2018-06-07T21:35:29.239Z,25.60
2018-06-07T21:37:57.192Z,25.50
2018-06-07T21:40:25.274Z,25.50
2018-06-07T21:42:53.225Z,25.50
2018-06-07T21:45:21.194Z,25.60
2018-06-07T21:47:55.922Z,25.20
2018-06-07T21:50:23.924Z,25.00
2018-06-07T21:52:51.890Z,24.70
2018-06-07T21:55:19.830Z,24.60
2018-06-07T21:57:47.804Z,24.50
2018-06-07T22:00:18.153Z,24.30
2018-06-07T22:02:46.165Z,24.40
2018-06-07T22:05:14.128Z,24.40
2018-06-07T22:07:42.075Z,24.50
2018-06-07T22:10:10.023Z,24.60
2018-06-07T22:12:37.979Z,24.50
2018-06-07T22:15:05.933Z,24.50
2018-06-07T22:17:34.076Z,24.30
2018-06-07T22:20:02.090Z,24.20
2018-06-07T22:22:30.584Z,24.20
2018-06-07T22:25:00.993Z,24.10
2018-06-07T22:27:29.107Z,23.90
2018-06-07T22:29:57.116Z,23.80
2018-06-07T22:32:25.080Z,23.80
2018-06-07T22:34:53.099Z,23.60
2018-06-07T22:37:21.140Z,23.60
2018-06-07T22:39:49.218Z,23.60
2018-06-07T22:42:17.208Z,23.70
2018-06-07T22:44:45.172Z,23.70
2018-06-07T22:47:13.126Z,23.60
2018-06-07T22:49:41.167Z,23.70
2018-06-07T22:52:09.164Z,23.80
2018-06-07T22:54:37.187Z,23.90
2018-06-07T22:57:05.230Z,23.80
2018-06-07T22:59:33.170Z,23.90
2018-06-07T23:02:01.112Z,23.80
2018-06-07T23:04:29.081Z,23.60
2018-06-07T23:06:57.062Z,23.70
2018-06-07T23:09:25.129Z,23.50
2018-06-07T23:11:53.099Z,23.40
2018-06-07T23:14:21.135Z,23.30
2018-06-07T23:16:49.166Z,23.20
2018-06-07T23:19:17.130Z,23.00
2018-06-07T23:21:45.112Z,23.00
2018-06-07T23:24:13.092Z,22.90
2018-06-07T23:26:41.079Z,22.80
2018-06-07T23:29:09.036Z,22.80
2018-06-07T23:31:37.083Z,22.80
2018-06-07T23:34:05.132Z,22.80
2018-06-07T23:36:33.132Z,22.70
2018-06-07T23:39:01.089Z,22.80
2018-06-07T23:41:29.103Z,22.70
2018-06-07T23:43:57.103Z,22.70
2018-06-07T23:46:25.084Z,22.60
2018-06-07T23:48:53.040Z,22.50
2018-06-07T23:51:21.008Z,22.50
2018-06-07T23:53:48.995Z,22.50
2018-06-07T23:56:16.941Z,22.60
2018-06-07T23:58:44.916Z,22.60
